Weather at RNAS Arbroath / HMS Condor / RM Condor Air Base [CLOSED]

Public forecast

Using degrees Celsius for public forecast. Weather courtesy of forecast.io.

Closest aviation weather report (METAR) to RNAS Arbroath / HMS Condor / RM Condor Air Base

Closest report is RAF Leuchars, 15.0 nm (27.9 km) SW. Retrieved 2021/07/31 03:50 UTC (60 minutes ago):

EGQL 310350Z 10005KT 6000 -DZ FEW003 BKN010 14/13 Q1004 GRN

Closest aviation forecast (TAF) to RNAS Arbroath / HMS Condor / RM Condor Air Base

Forecast is more than 12 hours old.

Closest forecast is RAF Leuchars, 15.0 nm (27.9 km) SW. Retrieved 2011/06/02 15:24 UTC (10 years ago):

TAF TAF EGQL 021308Z 0215/0304 25010KT 9999 FEW020